Time;durP1;ratioP1;P1;durP2;ratioP2;P2;SDS_P1;SDS_P2;PMS_P1;PMS_P2;Temp;Humidity;BMP_temperature;BMP_pressure;BME280_temperature;BME280_humidity;BME280_pressure;Samples;Min_cycle;Max_cycle;Signal;HPM_P1;HPM_P2
2022/11/10 05:46:11;;;;;;;24.25;11.48;;;9.80;99.90;;;;;;4984564;28;20038;-91
2022/11/10 05:48:36;;;;;;;28.42;17.00;;;9.80;99.90;;;;;;4983458;28;20121;-93
2022/11/10 05:51:02;;;;;;;29.98;17.70;;;9.80;99.90;;;;;;4965028;28;20046;-88
2022/11/10 05:53:27;;;;;;;29.35;19.45;;;9.80;99.90;;;;;;4960415;28;20751;-91
2022/11/10 05:55:53;;;;;;;20.60;11.00;;;9.90;99.90;;;;;;4943736;28;20479;-87
2022/11/10 05:58:19;;;;;;;28.48;18.00;;;9.80;99.90;;;;;;4961469;28;20057;-87
2022/11/10 06:00:44;;;;;;;31.25;19.27;;;9.90;99.90;;;;;;4959226;28;20049;-87
2022/11/10 06:03:16;;;;;;;30.58;19.38;;;9.90;99.90;;;;;;4960944;28;20061;-89
2022/11/10 06:05:41;;;;;;;31.23;19.88;;;10.00;99.90;;;;;;4963308;28;20038;-89
2022/11/10 06:08:08;;;;;;;29.38;19.05;;;10.00;99.90;;;;;;4981875;28;20043;-90
2022/11/10 06:10:35;;;;;;;32.58;20.15;;;10.00;99.90;;;;;;4965770;28;20039;-89
2022/11/10 06:13:01;;;;;;;32.78;20.45;;;9.90;99.90;;;;;;4965145;28;20049;-88
2022/11/10 06:15:27;;;;;;;21.95;12.15;;;10.00;99.90;;;;;;4961403;28;20046;-87
2022/11/10 06:17:53;;;;;;;33.45;19.38;;;10.00;99.90;;;;;;4964371;28;20062;-91
2022/11/10 06:20:19;;;;;;;24.83;11.20;;;10.00;99.90;;;;;;4973667;28;20036;-88
2022/11/10 06:23:06;;;;;;;28.23;19.17;;;10.00;99.90;;;;;;4965659;28;20042;-89
2022/11/10 06:25:34;;;;;;;29.52;18.95;;;10.00;99.90;;;;;;4978953;28;20034;-88
2022/11/10 06:28:01;;;;;;;31.20;19.33;;;10.00;99.90;;;;;;4976977;28;20138;-88
2022/11/10 06:30:27;;;;;;;33.20;19.52;;;10.00;99.90;;;;;;4956325;28;20139;-90
2022/11/10 06:32:53;;;;;;;28.38;17.98;;;10.00;99.90;;;;;;4964822;28;20351;-88
2022/11/10 06:35:20;;;;;;;30.40;18.35;;;10.00;99.90;;;;;;4957457;28;20153;-89
2022/11/10 06:37:56;;;;;;;23.67;10.98;;;10.00;99.90;;;;;;4949956;28;20787;-89
2022/11/10 06:40:21;;;;;;;32.55;18.52;;;10.00;99.90;;;;;;4973546;28;20042;-90
2022/11/10 06:42:47;;;;;;;31.23;19.52;;;10.00;99.90;;;;;;4963901;28;20039;-89
2022/11/10 06:45:13;;;;;;;32.65;17.80;;;10.00;99.90;;;;;;4967448;28;20050;-93
2022/11/10 06:47:38;;;;;;;23.35;10.13;;;10.00;99.90;;;;;;4964889;28;20054;-88
2022/11/10 06:50:04;;;;;;;29.30;17.92;;;9.90;99.90;;;;;;4948003;28;20049;-91
2022/11/10 06:52:30;;;;;;;29.85;17.50;;;9.90;99.90;;;;;;4949245;28;20055;-88
2022/11/10 06:54:57;;;;;;;23.73;10.75;;;10.00;99.90;;;;;;4962948;28;20030;-90
2022/11/10 06:57:22;;;;;;;34.03;17.77;;;9.90;99.90;;;;;;4966067;28;20043;-90
2022/11/10 06:59:48;;;;;;;26.63;17.73;;;9.90;99.90;;;;;;4956668;28;20677;-91
2022/11/10 07:02:14;;;;;;;28.38;16.85;;;10.00;99.90;;;;;;4984962;28;20047;-90
2022/11/10 07:04:41;;;;;;;32.35;16.95;;;10.00;99.90;;;;;;4966608;28;20035;-95
2022/11/10 07:07:07;;;;;;;29.15;18.35;;;10.00;99.90;;;;;;4968941;28;20031;-90
2022/11/10 07:09:33;;;;;;;28.25;17.40;;;10.00;99.90;;;;;;4963249;28;20058;-90
2022/11/10 07:11:58;;;;;;;29.55;18.02;;;10.00;99.90;;;;;;4959763;28;20106;-90
2022/11/10 07:14:24;;;;;;;27.83;17.73;;;10.00;99.90;;;;;;4968103;28;20069;-91
2022/11/10 07:16:49;;;;;;;23.88;9.82;;;10.00;99.90;;;;;;4967699;28;20056;-90
2022/11/10 07:19:15;;;;;;;28.60;17.27;;;10.00;99.90;;;;;;4959764;28;20117;-92
2022/11/10 07:21:41;;;;;;;26.92;17.58;;;10.00;99.90;;;;;;4986119;28;20038;-91
2022/11/10 07:24:07;;;;;;;31.25;18.67;;;10.10;99.90;;;;;;4967388;28;20453;-93
2022/11/10 07:26:32;;;;;;;28.85;18.80;;;10.10;99.90;;;;;;4965946;28;20054;-93
2022/11/10 07:28:58;;;;;;;31.58;18.13;;;10.20;99.90;;;;;;4950568;28;20042;-88
2022/11/10 07:31:24;;;;;;;32.25;18.83;;;10.20;99.90;;;;;;4983697;28;20038;-94
2022/11/10 07:33:49;;;;;;;36.60;19.33;;;10.20;99.90;;;;;;4949235;28;20061;-86
2022/11/10 07:36:15;;;;;;;30.50;18.77;;;10.30;99.90;;;;;;4945640;28;20048;-88
2022/11/10 07:38:41;;;;;;;28.60;9.18;;;10.30;99.90;;;;;;4985468;28;20050;-94
2022/11/10 07:41:06;;;;;;;20.75;9.95;;;10.30;99.90;;;;;;4974760;28;20042;-94
2022/11/10 07:43:32;;;;;;;31.55;18.88;;;10.30;99.90;;;;;;4969129;28;20078;-95
2022/11/10 07:45:59;;;;;;;26.08;18.30;;;10.40;99.90;;;;;;4972158;28;20058;-95
2022/11/10 07:48:25;;;;;;;27.90;19.23;;;10.40;99.90;;;;;;4994545;28;20284;-90
2022/11/10 07:50:50;;;;;;;30.05;18.67;;;10.40;99.90;;;;;;4964522;28;20042;-88
2022/11/10 07:53:21;;;;;;;29.83;19.55;;;10.40;99.90;;;;;;4985147;28;20258;-91
2022/11/10 07:55:47;;;;;;;27.55;18.75;;;10.40;99.90;;;;;;4964889;28;20394;-88
2022/11/10 07:58:15;;;;;;;23.15;11.75;;;10.40;99.90;;;;;;4980351;28;20113;-88
2022/11/10 08:00:41;;;;;;;30.10;19.10;;;10.40;99.90;;;;;;4988040;28;20038;-87
2022/11/10 08:03:11;;;;;;;32.47;20.35;;;10.40;99.90;;;;;;4983368;28;20070;-88
2022/11/10 08:05:37;;;;;;;31.95;19.77;;;10.40;99.90;;;;;;4946534;28;20424;-89
2022/11/10 08:08:03;;;;;;;31.77;19.52;;;10.50;99.90;;;;;;4983921;28;20117;-88
2022/11/10 08:33:47;;;;;;;33.80;21.63;;;10.70;99.90;;;;;;3326961;26;20050;-92
2022/11/10 08:36:13;;;;;;;33.42;19.88;;;10.70;99.90;;;;;;4952082;28;20061;-89
2022/11/10 08:38:38;;;;;;;29.38;19.38;;;10.80;99.90;;;;;;4967273;28;20043;-88
2022/11/10 08:41:04;;;;;;;28.50;19.55;;;10.80;99.90;;;;;;4970019;28;20094;-85
2022/11/10 08:43:30;;;;;;;29.27;18.95;;;10.90;99.90;;;;;;4968662;28;20050;-88
2022/11/10 08:45:55;;;;;;;29.50;17.60;;;11.00;99.90;;;;;;4966902;28;20058;-85
2022/11/10 08:48:22;;;;;;;26.77;17.63;;;11.10;99.90;;;;;;4952587;28;20057;-86
2022/11/10 08:50:48;;;;;;;28.67;17.20;;;11.20;99.90;;;;;;4952560;28;20116;-86
2022/11/10 08:53:32;;;;;;;27.23;16.70;;;11.30;99.90;;;;;;4965567;28;20154;-87
2022/11/10 08:55:58;;;;;;;27.50;15.82;;;11.30;99.90;;;;;;4952639;28;20039;-87
2022/11/10 08:58:24;;;;;;;25.67;15.02;;;11.40;99.90;;;;;;4946113;28;20043;-87
2022/11/10 09:00:50;;;;;;;24.35;15.32;;;11.50;99.90;;;;;;4965366;28;20065;-86
2022/11/10 09:03:21;;;;;;;28.35;14.55;;;11.50;99.90;;;;;;4947203;28;20037;-87
2022/11/10 09:05:47;;;;;;;;;;;11.50;99.90;;;;;;4954728;28;20511;-87
2022/11/10 09:08:14;;;;;;;25.70;14.20;;;11.50;99.90;;;;;;4971023;28;19918;-92
2022/11/10 09:10:43;;;;;;;25.02;13.38;;;11.50;99.90;;;;;;4934264;28;20130;-90
2022/11/10 09:13:10;;;;;;;23.05;13.82;;;11.50;99.90;;;;;;4952041;28;20054;-92
2022/11/10 09:15:36;;;;;;;27.05;13.00;;;11.60;99.90;;;;;;4952045;28;20097;-89
2022/11/10 09:18:04;;;;;;;23.48;13.07;;;11.60;99.90;;;;;;4969907;28;20035;-89
2022/11/10 09:20:31;;;;;;;23.60;12.45;;;11.70;99.90;;;;;;4922849;28;20125;-90
2022/11/10 09:23:16;;;;;;;26.70;12.73;;;11.70;99.90;;;;;;4948967;28;20062;-88
2022/11/10 09:25:47;;;;;;;24.38;13.77;;;11.80;99.90;;;;;;4968301;28;20168;-90
2022/11/10 09:28:13;;;;;;;26.38;13.40;;;11.80;99.90;;;;;;4951278;28;20031;-93
2022/11/10 09:30:40;;;;;;;23.67;13.27;;;11.80;99.90;;;;;;4954863;28;20042;-88
2022/11/10 09:33:06;;;;;;;22.95;12.55;;;11.90;99.90;;;;;;4945441;28;20061;-92
2022/11/10 09:35:31;;;;;;;22.52;13.02;;;12.00;99.90;;;;;;4934773;28;20105;-90
2022/11/10 09:37:57;;;;;;;26.90;12.63;;;12.00;99.90;;;;;;4953368;28;20047;-87
2022/11/10 09:40:32;;;;;;;23.00;12.80;;;12.00;99.90;;;;;;4932915;28;20046;-88
2022/11/10 09:43:00;;;;;;;26.05;12.00;;;12.00;99.90;;;;;;4948272;28;20395;-91
2022/11/10 09:45:31;;;;;;;24.25;12.10;;;12.10;99.90;;;;;;4964757;28;20042;-91
2022/11/10 09:48:03;;;;;;;25.10;12.60;;;12.20;99.90;;;;;;4969351;28;20476;-87
2022/11/10 09:50:40;;;;;;;27.23;13.23;;;12.20;99.90;;;;;;4971670;28;20035;-89
2022/11/10 09:53:14;;;;;;;25.90;13.32;;;12.30;99.90;;;;;;4945117;28;20043;-90
2022/11/10 09:55:52;;;;;;;26.30;11.77;;;12.40;99.90;;;;;;4949036;28;20117;-90
2022/11/10 09:58:21;;;;;;;23.02;11.63;;;12.50;99.90;;;;;;4937192;28;20039;-92
2022/11/10 10:01:19;;;;;;;18.60;10.07;;;12.50;99.90;;;;;;4932915;28;20342;-93
2022/11/10 10:03:51;;;;;;;23.08;10.15;;;12.70;99.90;;;;;;4874488;29;20737;-93
2022/11/10 10:06:19;;;;;;;22.10;9.43;;;12.70;99.90;;;;;;4877163;29;20401;-94
2022/11/10 10:08:48;;;;;;;22.15;9.25;;;12.80;99.90;;;;;;4874965;29;20120;-90
2022/11/10 10:11:48;;;;;;;20.55;8.93;;;12.80;99.90;;;;;;4892585;29;20037;-94
2022/11/10 10:14:22;;;;;;;19.20;8.57;;;12.90;99.90;;;;;;4871642;29;20055;-92
2022/11/10 10:16:59;;;;;;;21.13;8.50;;;12.90;99.90;;;;;;4874626;29;20465;-90
2022/11/10 10:19:40;;;;;;;20.38;8.55;;;12.80;99.90;;;;;;4891115;29;20048;-93
2022/11/10 10:22:42;;;;;;;20.73;8.10;;;12.90;99.90;;;;;;4873491;29;20049;-90
2022/11/10 10:25:21;;;;;;;16.48;7.35;;;12.90;99.90;;;;;;4865040;29;20052;-90
2022/11/10 10:27:55;;;;;;;16.63;7.15;;;13.00;99.90;;;;;;4874639;29;20063;-87
2022/11/10 10:30:21;;;;;;;22.38;7.45;;;13.10;99.90;;;;;;4872148;29;20483;-88
2022/11/10 10:32:47;;;;;;;21.63;7.40;;;13.10;99.90;;;;;;4886078;29;20108;-88
2022/11/10 10:35:16;;;;;;;16.45;7.18;;;13.20;99.90;;;;;;4889108;29;20061;-88
2022/11/10 10:37:51;;;;;;;18.25;6.63;;;13.30;99.90;;;;;;4889185;29;20157;-90
2022/11/10 10:40:19;;;;;;;19.77;6.85;;;13.30;99.90;;;;;;4895452;28;20623;-90
2022/11/10 10:42:45;;;;;;;17.27;5.97;;;13.30;99.90;;;;;;4962622;28;20046;-88
2022/11/10 10:45:20;;;;;;;17.63;6.65;;;13.30;99.90;;;;;;4967457;28;20089;-88
2022/11/10 10:47:48;;;;;;;16.40;6.20;;;13.30;99.90;;;;;;4959377;28;20045;-93
2022/11/10 10:50:34;;;;;;;18.05;6.43;;;13.30;99.90;;;;;;4950078;28;20043;-90
2022/11/10 10:53:15;;;;;;;18.08;6.55;;;13.40;99.90;;;;;;4949544;28;20053;-89
2022/11/10 10:56:00;;;;;;;17.55;6.18;;;13.50;99.90;;;;;;4947076;28;20109;-87
2022/11/10 10:58:49;;;;;;;17.65;6.47;;;13.50;99.90;;;;;;4952748;28;20047;-91
2022/11/10 11:01:15;;;;;;;18.17;6.45;;;13.50;99.90;;;;;;4952202;28;20069;-92
2022/11/10 11:03:46;;;;;;;19.35;5.90;;;13.50;99.90;;;;;;4934197;28;20051;-90
2022/11/10 11:06:15;;;;;;;16.05;5.70;;;13.60;99.90;;;;;;4952867;28;20038;-91
2022/11/10 11:09:03;;;;;;;17.30;5.80;;;13.60;99.90;;;;;;4958605;28;20134;-90
2022/11/10 11:11:34;;;;;;;17.38;5.50;;;13.70;99.90;;;;;;4976227;28;20035;-94
2022/11/10 11:14:19;;;;;;;18.27;5.50;;;13.70;99.90;;;;;;4973658;28;20049;-93
2022/11/10 11:16:55;;;;;;;14.80;6.10;;;13.80;99.90;;;;;;4980622;28;20038;-92
2022/11/10 11:19:27;;;;;;;15.55;6.05;;;13.80;99.90;;;;;;4940200;28;20050;-92
2022/11/10 11:22:30;;;;;;;18.08;6.45;;;13.90;99.90;;;;;;4982860;28;20047;-92
2022/11/10 11:25:21;;;;;;;20.77;6.93;;;13.90;99.90;;;;;;4943950;28;20441;-91
2022/11/10 11:28:04;;;;;;;16.33;6.00;;;14.00;99.90;;;;;;4958552;28;20323;-91
2022/11/10 11:30:44;;;;;;;15.85;5.28;;;14.00;99.90;;;;;;4957097;28;20031;-93
2022/11/10 11:33:24;;;;;;;19.40;5.53;;;14.00;99.90;;;;;;4955643;28;20118;-92
2022/11/10 11:36:06;;;;;;;19.17;5.30;;;14.00;99.90;;;;;;4973916;28;20094;-91
2022/11/10 11:39:06;;;;;;;16.10;5.60;;;14.00;99.90;;;;;;4944467;28;20039;-91
2022/11/10 11:41:43;;;;;;;18.60;5.60;;;14.00;99.90;;;;;;4959684;28;20054;-91
2022/11/10 11:44:29;;;;;;;18.90;5.72;;;14.00;99.90;;;;;;4955380;28;20042;-92
2022/11/10 11:47:27;;;;;;;16.40;5.43;;;14.00;99.90;;;;;;4938573;28;20046;-92
2022/11/10 11:50:18;;;;;;;19.40;5.78;;;14.10;99.90;;;;;;4952360;28;20057;-89
2022/11/10 11:52:53;;;;;;;;;;;14.10;99.90;;;;;;4951616;28;20324;-88
2022/11/10 11:55:54;;;;;;;15.90;5.03;;;14.00;99.90;;;;;;4950866;28;19917;-91
2022/11/10 11:58:31;;;;;;;17.45;4.63;;;14.10;99.90;;;;;;4967433;28;20061;-91
2022/11/10 12:01:38;;;;;;;17.77;5.10;;;14.20;99.90;;;;;;4935232;28;20070;-93
2022/11/10 12:04:29;;;;;;;17.83;4.30;;;14.30;99.90;;;;;;4967372;28;20046;-87
2022/11/10 12:07:27;;;;;;;16.95;4.82;;;14.30;99.90;;;;;;4946406;28;20046;-87
2022/11/10 12:10:00;;;;;;;16.38;4.47;;;14.30;99.90;;;;;;4955780;28;20097;-85
2022/11/10 12:12:49;;;;;;;20.75;4.30;;;14.40;99.90;;;;;;4969454;28;20030;-85
2022/11/10 12:15:44;;;;;;;18.77;4.40;;;14.40;99.90;;;;;;4951718;28;20085;-85
2022/11/10 12:18:36;;;;;;;16.48;4.35;;;14.40;99.90;;;;;;4967448;28;20066;-86
2022/11/10 12:21:06;;;;;;;17.75;4.32;;;14.40;99.90;;;;;;4954443;28;20128;-86
2022/11/10 12:23:44;;;;;;;14.37;4.10;;;14.40;99.90;;;;;;4968768;28;20415;-88
2022/11/10 12:26:16;;;;;;;19.08;4.15;;;14.40;99.90;;;;;;4961397;28;20109;-86
2022/11/10 12:28:53;;;;;;;14.95;4.13;;;14.30;99.90;;;;;;4950907;28;20070;-87
2022/11/10 12:31:22;;;;;;;16.95;3.75;;;14.30;99.90;;;;;;4950732;28;20043;-89
2022/11/10 12:34:04;;;;;;;17.05;4.03;;;14.30;99.90;;;;;;4952563;28;20065;-89
2022/11/10 12:36:31;;;;;;;14.63;3.28;;;14.30;99.90;;;;;;4969189;28;20150;-91
2022/11/10 12:39:19;;;;;;;15.93;3.40;;;14.30;99.90;;;;;;4953036;28;20050;-89
2022/11/10 12:41:51;;;;;;;15.07;3.90;;;14.30;99.90;;;;;;4967957;28;20491;-89
2022/11/10 12:44:26;;;;;;;14.82;3.60;;;14.30;99.90;;;;;;4951363;28;20066;-90
2022/11/10 12:46:56;;;;;;;12.70;3.10;;;14.30;99.90;;;;;;4950104;28;20138;-89
2022/11/10 12:49:37;;;;;;;15.65;4.45;;;14.30;99.90;;;;;;4951957;28;20034;-91
2022/11/10 12:52:10;;;;;;;16.02;4.25;;;14.30;99.90;;;;;;4952964;28;20370;-90
2022/11/10 12:54:37;;;;;;;15.93;4.00;;;14.20;99.90;;;;;;4968299;28;20046;-91
2022/11/10 12:57:05;;;;;;;13.88;3.95;;;14.30;99.90;;;;;;4953169;28;20105;-87
2022/11/10 12:59:32;;;;;;;16.42;3.53;;;14.30;99.90;;;;;;4957793;28;20051;-86
2022/11/10 13:02:04;;;;;;;12.80;3.30;;;14.30;99.90;;;;;;4969342;28;20058;-87
2022/11/10 13:04:31;;;;;;;15.95;3.60;;;14.40;99.90;;;;;;4940076;28;20047;-88
2022/11/10 13:07:03;;;;;;;15.55;3.67;;;14.40;99.90;;;;;;4953727;28;20035;-88
2022/11/10 13:09:35;;;;;;;13.85;3.97;;;14.50;99.90;;;;;;4971474;28;20122;-88
2022/11/10 13:12:16;;;;;;;17.20;3.92;;;14.50;99.90;;;;;;4953589;28;20379;-86
2022/11/10 13:14:44;;;;;;;16.00;3.92;;;14.50;99.90;;;;;;4952350;28;20046;-87
2022/11/10 13:17:43;;;;;;;15.15;3.70;;;14.40;99.90;;;;;;4966203;28;20045;-87
2022/11/10 13:20:37;;;;;;;15.52;3.72;;;14.40;99.90;;;;;;4922215;28;20127;-90
2022/11/10 13:23:21;;;;;;;17.55;4.25;;;14.40;99.90;;;;;;4965974;28;20480;-87
2022/11/10 13:25:52;;;;;;;18.52;3.60;;;14.40;99.90;;;;;;4951709;28;20133;-87
2022/11/10 13:28:46;;;;;;;16.75;4.28;;;14.40;99.90;;;;;;4952902;28;20084;-89
2022/11/10 13:31:27;;;;;;;13.98;3.80;;;14.40;99.90;;;;;;4954059;28;20055;-89
2022/11/10 13:34:10;;;;;;;15.30;4.18;;;14.40;99.90;;;;;;4952631;28;20113;-89
2022/11/10 13:36:44;;;;;;;15.50;4.43;;;14.40;99.90;;;;;;4953991;28;20043;-88
2022/11/10 13:39:19;;;;;;;18.30;4.10;;;14.40;99.90;;;;;;4966676;28;20133;-88
2022/11/10 13:41:59;;;;;;;15.45;4.15;;;14.40;99.90;;;;;;4953024;28;20146;-90
2022/11/10 13:44:28;;;;;;;18.45;4.03;;;14.30;99.90;;;;;;4966970;28;20080;-91
2022/11/10 13:47:06;;;;;;;17.10;4.07;;;14.30;99.90;;;;;;4953607;28;20043;-90
2022/11/10 13:49:50;;;;;;;15.55;4.63;;;14.30;99.90;;;;;;4953625;28;20058;-88
2022/11/10 13:52:18;;;;;;;14.50;4.15;;;14.30;99.90;;;;;;4932907;28;20371;-89
2022/11/10 13:55:09;;;;;;;15.75;3.90;;;14.20;99.90;;;;;;4955942;28;20046;-87
2022/11/10 13:57:36;;;;;;;18.97;4.07;;;14.30;99.90;;;;;;4935369;28;20495;-89
2022/11/10 14:00:13;;;;;;;13.80;3.50;;;14.30;99.90;;;;;;4952690;28;20770;-90
2022/11/10 14:02:46;;;;;;;14.23;4.00;;;14.30;99.90;;;;;;4969426;28;20050;-89
2022/11/10 14:05:40;;;;;;;14.73;3.83;;;14.30;99.90;;;;;;4960978;28;20073;-88
2022/11/10 14:08:13;;;;;;;11.45;3.15;;;14.30;99.90;;;;;;4951024;28;20065;-88
2022/11/10 14:10:48;;;;;;;12.07;3.35;;;14.30;99.90;;;;;;4951706;28;20074;-89
2022/11/10 14:13:42;;;;;;;13.77;3.83;;;14.30;99.90;;;;;;4951895;28;20078;-88
2022/11/10 14:16:19;;;;;;;14.68;3.78;;;14.30;99.90;;;;;;4952445;28;20177;-85
2022/11/10 14:18:53;;;;;;;14.27;4.05;;;14.30;99.90;;;;;;4968059;28;20166;-84
2022/11/10 14:21:37;;;;;;;19.23;4.30;;;14.30;99.90;;;;;;4966047;28;20042;-84
2022/11/10 14:24:14;;;;;;;14.73;3.67;;;14.30;99.90;;;;;;4949996;28;20067;-84
2022/11/10 14:26:49;;;;;;;15.85;4.40;;;14.20;99.90;;;;;;4967230;28;20058;-91
2022/11/10 14:29:31;;;;;;;14.23;4.03;;;14.30;99.90;;;;;;4950740;28;20353;-88
2022/11/10 14:32:01;;;;;;;15.55;4.15;;;14.20;99.90;;;;;;4966055;28;20047;-90
2022/11/10 14:34:27;;;;;;;15.00;5.10;;;14.30;99.90;;;;;;4968478;28;20145;-90
2022/11/10 14:36:58;;;;;;;17.00;5.40;;;14.20;99.90;;;;;;4963778;28;20145;-90
2022/11/10 14:39:32;;;;;;;15.70;4.78;;;14.20;99.90;;;;;;4950867;28;20078;-91
2022/11/10 14:42:01;;;;;;;15.00;4.55;;;14.20;99.90;;;;;;4967652;28;20447;-89
2022/11/10 14:44:30;;;;;;;20.70;5.03;;;14.20;99.90;;;;;;4971565;28;20074;-89
2022/11/10 14:47:11;;;;;;;14.93;4.70;;;14.10;99.90;;;;;;4938311;28;20101;-91
2022/11/10 14:49:37;;;;;;;17.23;4.20;;;14.10;99.90;;;;;;4955182;28;20440;-90
2022/11/10 14:52:03;;;;;;;14.93;4.65;;;14.10;99.90;;;;;;4950673;28;20042;-89
2022/11/10 14:54:28;;;;;;;14.77;4.47;;;14.10;99.90;;;;;;4968882;28;20045;-91
2022/11/10 14:56:55;;;;;;;13.88;4.18;;;14.10;99.90;;;;;;4953535;28;20093;-89
2022/11/10 14:59:23;;;;;;;15.70;4.78;;;14.10;99.90;;;;;;4952539;28;20575;-90
2022/11/10 15:01:57;;;;;;;14.57;4.25;;;14.10;99.90;;;;;;4970948;28;20042;-89
2022/11/10 15:04:30;;;;;;;15.07;4.47;;;14.10;99.90;;;;;;4951109;28;20097;-90
2022/11/10 15:06:57;;;;;;;15.10;4.55;;;14.00;99.90;;;;;;4951927;28;20038;-89
2022/11/10 15:09:30;;;;;;;11.65;4.30;;;14.00;99.90;;;;;;4968567;28;20043;-89
2022/11/10 15:12:01;;;;;;;14.40;4.40;;;14.00;99.90;;;;;;4972357;28;20436;-90
2022/11/10 15:14:30;;;;;;;14.52;4.55;;;14.00;99.90;;;;;;4953966;28;20082;-91
2022/11/10 15:17:04;;;;;;;17.75;4.65;;;14.00;99.90;;;;;;4967835;28;20043;-89
2022/11/10 15:19:52;;;;;;;14.93;4.70;;;14.00;99.90;;;;;;4950741;28;20039;-91
2022/11/10 15:22:28;;;;;;;12.02;4.57;;;14.00;99.90;;;;;;4971296;28;20054;-91
2022/11/10 15:24:55;;;;;;;13.63;4.35;;;14.00;99.90;;;;;;4968560;28;20053;-90
2022/11/10 15:27:28;;;;;;;13.77;5.07;;;13.90;99.90;;;;;;4967784;28;20070;-94
2022/11/10 15:29:57;;;;;;;14.88;4.82;;;13.90;99.90;;;;;;4974205;28;20042;-96
2022/11/10 15:32:30;;;;;;;14.10;4.65;;;13.90;99.90;;;;;;4942274;28;20051;-94
2022/11/10 15:35:27;;;;;;;14.98;4.20;;;13.90;99.90;;;;;;4956239;28;20131;-94
2022/11/10 15:38:08;;;;;;;18.25;4.43;;;13.80;99.90;;;;;;4953371;28;20047;-91
2022/11/10 15:40:41;;;;;;;15.15;4.22;;;13.80;99.90;;;;;;4934426;28;20073;-94
2022/11/10 15:43:19;;;;;;;14.13;4.40;;;13.80;99.90;;;;;;4972441;28;20086;-95
2022/11/10 15:46:01;;;;;;;14.02;4.60;;;13.80;99.90;;;;;;4974755;28;20108;-94
2022/11/10 15:48:30;;;;;;;;;;;13.80;99.90;;;;;;4977266;28;20045;-93
2022/11/10 15:50:57;;;;;;;12.93;4.30;;;13.70;99.90;;;;;;4947668;28;19965;-94
2022/11/10 15:53:30;;;;;;;13.77;4.07;;;13.80;99.90;;;;;;4964954;28;20043;-94
2022/11/10 15:55:56;;;;;;;14.50;4.20;;;13.70;99.90;;;;;;4940971;28;20043;-95
2022/11/10 15:58:22;;;;;;;14.48;4.10;;;13.70;99.90;;;;;;4935105;28;20073;-92
2022/11/10 16:00:48;;;;;;;14.02;3.78;;;13.70;99.90;;;;;;4973634;28;20085;-94
2022/11/10 16:03:17;;;;;;;16.00;4.18;;;13.80;99.90;;;;;;4955444;28;20043;-95
2022/11/10 16:05:43;;;;;;;16.50;4.28;;;13.80;99.90;;;;;;4943706;28;20064;-90
2022/11/10 16:08:16;;;;;;;13.18;3.80;;;13.80;99.90;;;;;;4970814;28;20038;-92
